sensor_id;sensor_type;location;lat;lon;timestamp;pressure;altitude;pressure_sealevel;temperature;humidity
60373;BME280;46216;52.220;5.134;2023-09-19T00:02:12;100812.97;;;15.01;100.00
60373;BME280;46216;52.220;5.134;2023-09-19T00:04:40;100819.34;;;15.00;100.00
60373;BME280;46216;52.220;5.134;2023-09-19T00:07:07;100820.34;;;14.99;100.00
60373;BME280;46216;52.220;5.134;2023-09-19T00:09:34;100818.66;;;14.98;100.00
60373;BME280;46216;52.220;5.134;2023-09-19T00:12:05;100815.25;;;14.96;100.00
60373;BME280;46216;52.220;5.134;2023-09-19T00:14:30;100819.91;;;14.94;100.00
60373;BME280;46216;52.220;5.134;2023-09-19T00:16:59;100833.03;;;14.97;100.00
60373;BME280;46216;52.220;5.134;2023-09-19T00:19:26;100825.84;;;14.98;100.00
60373;BME280;46216;52.220;5.134;2023-09-19T00:21:51;100829.41;;;14.98;100.00
60373;BME280;46216;52.220;5.134;2023-09-19T00:24:18;100832.09;;;14.98;100.00
60373;BME280;46216;52.220;5.134;2023-09-19T00:26:43;100830.53;;;14.96;100.00
60373;BME280;46216;52.220;5.134;2023-09-19T00:29:09;100838.13;;;15.00;100.00
60373;BME280;46216;52.220;5.134;2023-09-19T00:31:34;100838.97;;;15.01;100.00
60373;BME280;46216;52.220;5.134;2023-09-19T00:34:02;100835.44;;;15.00;100.00
60373;BME280;46216;52.220;5.134;2023-09-19T00:36:35;100838.13;;;15.00;100.00
60373;BME280;46216;52.220;5.134;2023-09-19T00:39:01;100843.50;;;15.00;100.00
60373;BME280;46216;52.220;5.134;2023-09-19T00:41:28;100838.41;;;14.97;100.00
60373;BME280;46216;52.220;5.134;2023-09-19T00:43:55;100843.66;;;14.99;100.00
60373;BME280;46216;52.220;5.134;2023-09-19T00:46:21;100838.41;;;14.97;100.00
60373;BME280;46216;52.220;5.134;2023-09-19T00:48:46;100848.19;;;14.98;100.00
60373;BME280;46216;52.220;5.134;2023-09-19T00:51:12;100852.69;;;14.98;100.00
60373;BME280;46216;52.220;5.134;2023-09-19T00:53:39;100854.50;;;14.97;100.00
60373;BME280;46216;52.220;5.134;2023-09-19T00:56:05;100859.19;;;14.95;100.00
60373;BME280;46216;52.220;5.134;2023-09-19T00:58:32;100856.78;;;14.92;100.00
60373;BME280;46216;52.220;5.134;2023-09-19T01:00:59;100860.44;;;14.91;100.00
60373;BME280;46216;52.220;5.134;2023-09-19T01:03:24;100859.47;;;14.92;100.00
60373;BME280;46216;52.220;5.134;2023-09-19T01:05:50;100863.00;;;14.93;100.00
60373;BME280;46216;52.220;5.134;2023-09-19T01:08:15;100865.53;;;14.94;100.00
60373;BME280;46216;52.220;5.134;2023-09-19T01:11:03;100861.03;;;14.95;100.00
60373;BME280;46216;52.220;5.134;2023-09-19T01:16:35;100869.22;;;14.93;100.00
60373;BME280;46216;52.220;5.134;2023-09-19T01:24:41;100851.41;;;14.92;100.00
60373;BME280;46216;52.220;5.134;2023-09-19T01:30:07;100865.81;;;14.91;100.00
60373;BME280;46216;52.220;5.134;2023-09-19T01:32:34;100861.31;;;14.92;100.00
60373;BME280;46216;52.220;5.134;2023-09-19T01:34:59;100855.94;;;14.92;100.00
60373;BME280;46216;52.220;5.134;2023-09-19T01:37:30;100855.06;;;14.91;100.00
60373;BME280;46216;52.220;5.134;2023-09-19T01:40:01;100867.53;;;14.92;100.00
60373;BME280;46216;52.220;5.134;2023-09-19T01:42:41;100870.19;;;14.92;100.00
60373;BME280;46216;52.220;5.134;2023-09-19T01:48:40;100880.22;;;14.90;100.00
60373;BME280;46216;52.220;5.134;2023-09-19T01:51:11;100866.38;;;14.85;100.00
60373;BME280;46216;52.220;5.134;2023-09-19T01:53:51;100865.09;;;14.79;100.00
60373;BME280;46216;52.220;5.134;2023-09-19T01:56:29;100875.66;;;14.81;100.00
60373;BME280;46216;52.220;5.134;2023-09-19T01:59:03;100874.81;;;14.80;100.00
60373;BME280;46216;52.220;5.134;2023-09-19T02:01:30;100858.72;;;14.80;100.00
60373;BME280;46216;52.220;5.134;2023-09-19T02:03:56;100855.66;;;14.85;100.00
60373;BME280;46216;52.220;5.134;2023-09-19T02:06:22;100859.03;;;14.87;100.00
60373;BME280;46216;52.220;5.134;2023-09-19T02:08:47;100855.94;;;14.82;100.00
60373;BME280;46216;52.220;5.134;2023-09-19T02:11:13;100864.66;;;14.84;100.00
60373;BME280;46216;52.220;5.134;2023-09-19T02:13:38;100853.34;;;14.80;100.00
60373;BME280;46216;52.220;5.134;2023-09-19T02:16:05;100860.28;;;14.83;100.00
60373;BME280;46216;52.220;5.134;2023-09-19T02:18:32;100870.03;;;14.84;100.00
60373;BME280;46216;52.220;5.134;2023-09-19T02:21:00;100870.03;;;14.84;100.00
60373;BME280;46216;52.220;5.134;2023-09-19T02:23:26;100862.97;;;14.83;100.00
60373;BME280;46216;52.220;5.134;2023-09-19T02:25:52;100866.94;;;14.79;100.00
60373;BME280;46216;52.220;5.134;2023-09-19T02:28:18;100870.31;;;14.81;100.00
60373;BME280;46216;52.220;5.134;2023-09-19T02:30:47;100874.69;;;14.82;100.00
60373;BME280;46216;52.220;5.134;2023-09-19T02:33:13;100874.44;;;14.85;100.00
60373;BME280;46216;52.220;5.134;2023-09-19T02:35:39;100867.78;;;14.79;100.00
60373;BME280;46216;52.220;5.134;2023-09-19T02:38:04;100876.66;;;14.80;100.00
60373;BME280;46216;52.220;5.134;2023-09-19T02:40:31;100879.50;;;14.78;100.00
60373;BME280;46216;52.220;5.134;2023-09-19T02:42:56;100876.28;;;14.84;100.00
60373;BME280;46216;52.220;5.134;2023-09-19T02:45:24;100872.03;;;14.82;100.00
60373;BME280;46216;52.220;5.134;2023-09-19T02:47:50;100883.59;;;14.82;100.00
60373;BME280;46216;52.220;5.134;2023-09-19T02:50:16;100882.47;;;14.85;100.00
60373;BME280;46216;52.220;5.134;2023-09-19T02:52:42;100883.31;;;14.85;100.00
60373;BME280;46216;52.220;5.134;2023-09-19T02:55:09;100882.47;;;14.85;100.00
60373;BME280;46216;52.220;5.134;2023-09-19T02:57:35;100877.13;;;14.85;100.00
60373;BME280;46216;52.220;5.134;2023-09-19T03:00:03;100879.78;;;14.85;100.00
60373;BME280;46216;52.220;5.134;2023-09-19T03:02:29;100871.75;;;14.85;100.00
60373;BME280;46216;52.220;5.134;2023-09-19T03:04:58;100867.34;;;14.84;100.00
60373;BME280;46216;52.220;5.134;2023-09-19T03:07:28;100868.50;;;14.81;100.00
60373;BME280;46216;52.220;5.134;2023-09-19T03:09:53;100870.31;;;14.81;100.00
60373;BME280;46216;52.220;5.134;2023-09-19T03:12:20;100875.66;;;14.81;100.00
60373;BME280;46216;52.220;5.134;2023-09-19T03:14:45;100862.56;;;14.78;100.00
60373;BME280;46216;52.220;5.134;2023-09-19T03:17:11;100868.63;;;14.80;100.00
60373;BME280;46216;52.220;5.134;2023-09-19T03:19:36;100870.44;;;14.79;100.00
60373;BME280;46216;52.220;5.134;2023-09-19T03:22:04;100873.97;;;14.80;100.00
60373;BME280;46216;52.220;5.134;2023-09-19T03:24:29;100875.66;;;14.81;100.00
60373;BME280;46216;52.220;5.134;2023-09-19T03:26:56;100868.34;;;14.83;100.00
60373;BME280;46216;52.220;5.134;2023-09-19T03:29:22;100873.97;;;14.80;100.00
60373;BME280;46216;52.220;5.134;2023-09-19T03:31:47;100866.94;;;14.79;100.00
60373;BME280;46216;52.220;5.134;2023-09-19T03:34:13;100876.66;;;14.80;100.00
60373;BME280;46216;52.220;5.134;2023-09-19T03:36:38;100864.25;;;14.79;100.00
60373;BME280;46216;52.220;5.134;2023-09-19T03:39:04;100862.56;;;14.78;100.00
60373;BME280;46216;52.220;5.134;2023-09-19T03:41:31;100861.00;;;14.75;100.00
60373;BME280;46216;52.220;5.134;2023-09-19T03:43:56;100861.84;;;14.76;100.00
60373;BME280;46216;52.220;5.134;2023-09-19T03:46:22;100869.72;;;14.77;100.00
60373;BME280;46216;52.220;5.134;2023-09-19T03:48:47;100869.59;;;14.79;100.00
60373;BME280;46216;52.220;5.134;2023-09-19T03:51:12;100873.97;;;14.80;100.00
60373;BME280;46216;52.220;5.134;2023-09-19T03:53:37;100880.34;;;14.79;100.00
60373;BME280;46216;52.220;5.134;2023-09-19T03:56:03;100882.31;;;14.77;100.00
60373;BME280;46216;52.220;5.134;2023-09-19T03:58:28;100885.97;;;14.76;100.00
60373;BME280;46216;52.220;5.134;2023-09-19T04:00:57;100888.94;;;14.73;100.00
60373;BME280;46216;52.220;5.134;2023-09-19T04:03:23;100879.19;;;14.72;100.00
60373;BME280;46216;52.220;5.134;2023-09-19T04:05:50;100885.41;;;14.72;100.00
60373;BME280;46216;52.220;5.134;2023-09-19T04:08:15;100888.22;;;14.71;100.00
60373;BME280;46216;52.220;5.134;2023-09-19T04:10:44;100897.13;;;14.71;100.00
60373;BME280;46216;52.220;5.134;2023-09-19T04:13:10;100897.13;;;14.71;100.00
60373;BME280;46216;52.220;5.134;2023-09-19T04:15:36;100901.63;;;14.71;100.00
60373;BME280;46216;52.220;5.134;2023-09-19T04:18:03;100908.97;;;14.69;100.00
60373;BME280;46216;52.220;5.134;2023-09-19T04:20:29;100907.13;;;14.69;100.00
60373;BME280;46216;52.220;5.134;2023-09-19T04:22:54;100914.75;;;14.74;100.00
60373;BME280;46216;52.220;5.134;2023-09-19T04:25:20;100910.28;;;14.74;100.00
60373;BME280;46216;52.220;5.134;2023-09-19T04:27:46;100918.44;;;14.73;100.00
60373;BME280;46216;52.220;5.134;2023-09-19T04:30:14;100915.75;;;14.73;100.00
60373;BME280;46216;52.220;5.134;2023-09-19T04:32:40;100923.97;;;14.71;100.00
60373;BME280;46216;52.220;5.134;2023-09-19T04:35:10;100919.81;;;14.67;100.00
60373;BME280;46216;52.220;5.134;2023-09-19T04:37:39;100921.66;;;14.66;100.00
60373;BME280;46216;52.220;5.134;2023-09-19T04:40:09;100923.38;;;14.68;100.00
60373;BME280;46216;52.220;5.134;2023-09-19T04:42:45;100915.59;;;14.64;100.00
60373;BME280;46216;52.220;5.134;2023-09-19T04:45:11;100924.34;;;14.66;100.00
60373;BME280;46216;52.220;5.134;2023-09-19T04:47:37;100910.94;;;14.66;100.00
60373;BME280;46216;52.220;5.134;2023-09-19T04:50:07;100911.34;;;14.62;100.00
60373;BME280;46216;52.220;5.134;2023-09-19T04:52:33;100905.84;;;14.63;100.00
60373;BME280;46216;52.220;5.134;2023-09-19T04:54:58;100910.63;;;14.60;100.00
60373;BME280;46216;52.220;5.134;2023-09-19T04:57:24;100912.63;;;14.58;100.00
60373;BME280;46216;52.220;5.134;2023-09-19T04:59:50;100924.19;;;14.58;100.00
60373;BME280;46216;52.220;5.134;2023-09-19T05:02:16;100925.19;;;14.57;100.00
60373;BME280;46216;52.220;5.134;2023-09-19T05:04:41;100919.09;;;14.55;100.00
60373;BME280;46216;52.220;5.134;2023-09-19T05:07:06;100913.88;;;14.54;100.00
60373;BME280;46216;52.220;5.134;2023-09-19T05:09:32;100920.34;;;14.51;100.00
60373;BME280;46216;52.220;5.134;2023-09-19T05:11:59;100921.31;;;14.50;100.00
60373;BME280;46216;52.220;5.134;2023-09-19T05:14:24;100926.69;;;14.50;100.00
60373;BME280;46216;52.220;5.134;2023-09-19T05:16:50;100924.13;;;14.49;100.00
60373;BME280;46216;52.220;5.134;2023-09-19T05:19:15;100921.56;;;14.47;100.00
60373;BME280;46216;52.220;5.134;2023-09-19T05:21:40;100926.06;;;14.47;100.00
60373;BME280;46216;52.220;5.134;2023-09-19T05:24:06;100940.19;;;14.49;100.00
60373;BME280;46216;52.220;5.134;2023-09-19T05:26:32;100932.31;;;14.47;100.00
60373;BME280;46216;52.220;5.134;2023-09-19T05:28:57;100915.22;;;14.48;100.00
60373;BME280;46216;52.220;5.134;2023-09-19T05:31:23;100923.28;;;14.48;100.00
60373;BME280;46216;52.220;5.134;2023-09-19T05:33:49;100934.00;;;14.48;100.00
60373;BME280;46216;52.220;5.134;2023-09-19T05:36:15;100923.28;;;14.48;100.00
60373;BME280;46216;52.220;5.134;2023-09-19T05:38:42;100935.84;;;14.48;100.00
60373;BME280;46216;52.220;5.134;2023-09-19T05:41:08;100934.84;;;14.49;100.00
60373;BME280;46216;52.220;5.134;2023-09-19T05:43:35;100935.00;;;14.47;100.00
60373;BME280;46216;52.220;5.134;2023-09-19T05:46:03;100941.88;;;14.50;100.00
60373;BME280;46216;52.220;5.134;2023-09-19T05:48:28;100943.66;;;14.51;100.00
60373;BME280;46216;52.220;5.134;2023-09-19T05:50:54;100952.53;;;14.51;100.00
60373;BME280;46216;52.220;5.134;2023-09-19T05:53:19;100945.19;;;14.53;100.00
60373;BME280;46216;52.220;5.134;2023-09-19T05:55:44;100952.13;;;14.56;100.00
60373;BME280;46216;52.220;5.134;2023-09-19T05:58:11;100948.44;;;14.57;100.00
60373;BME280;46216;52.220;5.134;2023-09-19T06:00:39;100956.38;;;14.58;100.00
60373;BME280;46216;52.220;5.134;2023-09-19T06:03:06;100960.03;;;14.57;100.00
60373;BME280;46216;52.220;5.134;2023-09-19T06:05:32;100959.91;;;14.59;100.00
60373;BME280;46216;52.220;5.134;2023-09-19T06:07:57;100964.00;;;14.63;100.00
60373;BME280;46216;52.220;5.134;2023-09-19T06:10:26;100969.25;;;14.64;100.00
60373;BME280;46216;52.220;5.134;2023-09-19T06:12:57;100955.84;;;14.64;100.00
60373;BME280;46216;52.220;5.134;2023-09-19T06:15:23;100960.06;;;14.67;100.00
60373;BME280;46216;52.220;5.134;2023-09-19T06:17:53;100968.56;;;14.72;100.00
60373;BME280;46216;52.220;5.134;2023-09-19T06:20:23;100965.03;;;14.72;100.00
60373;BME280;46216;52.220;5.134;2023-09-19T06:22:50;100965.72;;;14.74;100.00
60373;BME280;46216;52.220;5.134;2023-09-19T06:25:16;100962.66;;;14.78;100.00
60373;BME280;46216;52.220;5.134;2023-09-19T06:27:46;100957.72;;;14.83;100.00
60373;BME280;46216;52.220;5.134;2023-09-19T06:30:11;100952.94;;;14.87;100.00
60373;BME280;46216;52.220;5.134;2023-09-19T06:32:38;100956.34;;;14.89;100.00
60373;BME280;46216;52.220;5.134;2023-09-19T06:35:04;100960.88;;;14.88;100.00
60373;BME280;46216;52.220;5.134;2023-09-19T06:37:32;100952.53;;;14.92;100.00
60373;BME280;46216;52.220;5.134;2023-09-19T06:39:59;100955.34;;;14.90;100.00
60373;BME280;46216;52.220;5.134;2023-09-19T06:42:25;100956.91;;;14.93;100.00
60373;BME280;46216;52.220;5.134;2023-09-19T06:44:50;100954.22;;;14.93;100.00
60373;BME280;46216;52.220;5.134;2023-09-19T06:47:19;100962.13;;;14.94;100.00
60373;BME280;46216;52.220;5.134;2023-09-19T06:49:45;100967.22;;;14.97;100.00
60373;BME280;46216;52.220;5.134;2023-09-19T06:52:10;100959.75;;;15.01;100.00
60373;BME280;46216;52.220;5.134;2023-09-19T06:54:36;100965.69;;;15.04;100.00
60373;BME280;46216;52.220;5.134;2023-09-19T06:57:03;100963.00;;;15.04;100.00
60373;BME280;46216;52.220;5.134;2023-09-19T06:59:29;100961.03;;;15.06;100.00
60373;BME280;46216;52.220;5.134;2023-09-19T07:01:54;100957.25;;;15.09;100.00
60373;BME280;46216;52.220;5.134;2023-09-19T07:04:20;100955.13;;;15.12;100.00
60373;BME280;46216;52.220;5.134;2023-09-19T07:06:51;100958.50;;;15.14;100.00
60373;BME280;46216;52.220;5.134;2023-09-19T07:09:17;100963.59;;;15.18;100.00
60373;BME280;46216;52.220;5.134;2023-09-19T07:11:44;100966.75;;;15.23;100.00
60373;BME280;46216;52.220;5.134;2023-09-19T07:14:10;100976.22;;;15.27;100.00
60373;BME280;46216;52.220;5.134;2023-09-19T07:16:37;100975.09;;;15.29;100.00
60373;BME280;46216;52.220;5.134;2023-09-19T07:19:04;100982.03;;;15.32;100.00
60373;BME280;46216;52.220;5.134;2023-09-19T07:21:30;100985.41;;;15.34;100.00
60373;BME280;46216;52.220;5.134;2023-09-19T07:23:55;100993.03;;;15.38;100.00
60373;BME280;46216;52.220;5.134;2023-09-19T07:26:20;100992.75;;;15.42;100.00
60373;BME280;46216;52.220;5.134;2023-09-19T07:28:46;100997.72;;;15.46;100.00
60373;BME280;46216;52.220;5.134;2023-09-19T07:31:11;100993.78;;;15.50;100.00
60373;BME280;46216;52.220;5.134;2023-09-19T07:33:39;100988.81;;;15.55;100.00
60373;BME280;46216;52.220;5.134;2023-09-19T07:36:05;100991.94;;;15.60;100.00
60373;BME280;46216;52.220;5.134;2023-09-19T07:38:31;100981.59;;;15.66;100.00
60373;BME280;46216;52.220;5.134;2023-09-19T07:41:01;100997.34;;;15.70;100.00
60373;BME280;46216;52.220;5.134;2023-09-19T07:43:27;101001.44;;;15.74;100.00
60373;BME280;46216;52.220;5.134;2023-09-19T07:45:53;101003.97;;;15.76;100.00
60373;BME280;46216;52.220;5.134;2023-09-19T07:48:18;101006.41;;;15.79;100.00
60373;BME280;46216;52.220;5.134;2023-09-19T07:50:43;101006.13;;;15.82;100.00
60373;BME280;46216;52.220;5.134;2023-09-19T07:53:09;100997.38;;;15.80;100.00
60373;BME280;46216;52.220;5.134;2023-09-19T07:55:35;101005.28;;;15.81;100.00
60373;BME280;46216;52.220;5.134;2023-09-19T07:58:00;101002.03;;;15.88;100.00
60373;BME280;46216;52.220;5.134;2023-09-19T08:00:28;101000.75;;;15.92;100.00
60373;BME280;46216;52.220;5.134;2023-09-19T08:02:54;101002.03;;;15.97;100.00
60373;BME280;46216;52.220;5.134;2023-09-19T08:05:19;101004.28;;;16.02;100.00
60373;BME280;46216;52.220;5.134;2023-09-19T08:07:46;101006.41;;;16.08;100.00
60373;BME280;46216;52.220;5.134;2023-09-19T08:10:15;101000.56;;;16.13;100.00
60373;BME280;46216;52.220;5.134;2023-09-19T08:12:44;100992.94;;;16.18;100.00
60373;BME280;46216;52.220;5.134;2023-09-19T08:15:17;100988.25;;;16.20;100.00
60373;BME280;46216;52.220;5.134;2023-09-19T08:17:44;100992.38;;;16.24;100.00
60373;BME280;46216;52.220;5.134;2023-09-19T08:20:10;100986.38;;;16.30;100.00
60373;BME280;46216;52.220;5.134;2023-09-19T08:22:52;100995.88;;;16.34;100.00
60373;BME280;46216;52.220;5.134;2023-09-19T08:25:20;100991.19;;;16.36;100.00
60373;BME280;46216;52.220;5.134;2023-09-19T08:27:46;100992.31;;;16.43;100.00
60373;BME280;46216;52.220;5.134;2023-09-19T08:30:14;100993.00;;;16.45;100.00
60373;BME280;46216;52.220;5.134;2023-09-19T08:32:40;100974.44;;;16.52;100.00
60373;BME280;46216;52.220;5.134;2023-09-19T08:35:08;100974.84;;;16.57;100.00
60373;BME280;46216;52.220;5.134;2023-09-19T08:37:34;100970.34;;;16.58;100.00
60373;BME280;46216;52.220;5.134;2023-09-19T08:39:59;100978.50;;;16.66;100.00
60373;BME280;46216;52.220;5.134;2023-09-19T08:42:25;100972.00;;;16.68;100.00
60373;BME280;46216;52.220;5.134;2023-09-19T08:44:50;100986.28;;;16.69;100.00
60373;BME280;46216;52.220;5.134;2023-09-19T08:47:25;100974.22;;;16.73;100.00
60373;BME280;46216;52.220;5.134;2023-09-19T08:50:11;100980.34;;;16.75;100.00
60373;BME280;46216;52.220;5.134;2023-09-19T08:52:42;100979.06;;;16.79;100.00
60373;BME280;46216;52.220;5.134;2023-09-19T08:55:11;100974.50;;;16.79;100.00
60373;BME280;46216;52.220;5.134;2023-09-19T08:57:38;100986.00;;;16.82;100.00
60373;BME280;46216;52.220;5.134;2023-09-19T09:00:07;100984.41;;;16.89;100.00
60373;BME280;46216;52.220;5.134;2023-09-19T09:02:40;100996.69;;;16.91;100.00
60373;BME280;46216;52.220;5.134;2023-09-19T09:05:08;100981.78;;;16.97;100.00
60373;BME280;46216;52.220;5.134;2023-09-19T09:07:35;101000.19;;;17.01;100.00
60373;BME280;46216;52.220;5.134;2023-09-19T09:10:03;100982.03;;;17.03;100.00
60373;BME280;46216;52.220;5.134;2023-09-19T09:12:29;100976.66;;;17.03;100.00
60373;BME280;46216;52.220;5.134;2023-09-19T09:14:55;100972.66;;;17.08;100.00
60373;BME280;46216;52.220;5.134;2023-09-19T09:17:26;100975.75;;;17.13;100.00
60373;BME280;46216;52.220;5.134;2023-09-19T09:19:54;100972.06;;;17.14;100.00
60373;BME280;46216;52.220;5.134;2023-09-19T09:22:20;100957.59;;;17.15;100.00
60373;BME280;46216;52.220;5.134;2023-09-19T09:24:58;100966.22;;;17.18;100.00
60373;BME280;46216;52.220;5.134;2023-09-19T09:27:29;100963.22;;;17.21;100.00
60373;BME280;46216;52.220;5.134;2023-09-19T09:29:54;100965.78;;;17.23;100.00
60373;BME280;46216;52.220;5.134;2023-09-19T09:32:21;100962.91;;;17.24;100.00
60373;BME280;46216;52.220;5.134;2023-09-19T09:34:49;100966.75;;;17.22;100.00
60373;BME280;46216;52.220;5.134;2023-09-19T09:37:22;100964.94;;;17.22;100.00
60373;BME280;46216;52.220;5.134;2023-09-19T09:39:54;100963.94;;;17.23;100.00
60373;BME280;46216;52.220;5.134;2023-09-19T09:42:35;100966.03;;;17.30;100.00
60373;BME280;46216;52.220;5.134;2023-09-19T09:45:20;100966.94;;;17.38;100.00
60373;BME280;46216;52.220;5.134;2023-09-19T09:48:01;100959.63;;;17.48;100.00
60373;BME280;46216;52.220;5.134;2023-09-19T09:50:46;100970.19;;;17.60;100.00
60373;BME280;46216;52.220;5.134;2023-09-19T09:56:01;100948.69;;;17.68;100.00
60373;BME280;46216;52.220;5.134;2023-09-19T09:58:27;100963.41;;;17.73;100.00
60373;BME280;46216;52.220;5.134;2023-09-19T10:00:58;100963.72;;;17.70;100.00
60373;BME280;46216;52.220;5.134;2023-09-19T10:03:35;100965.09;;;17.74;100.00
60373;BME280;46216;52.220;5.134;2023-09-19T10:06:06;100969.66;;;17.74;100.00
60373;BME280;46216;52.220;5.134;2023-09-19T10:09:06;100958.03;;;17.73;100.00
60373;BME280;46216;52.220;5.134;2023-09-19T10:11:59;100958.59;;;17.77;100.00
60373;BME280;46216;52.220;5.134;2023-09-19T10:14:25;100943.78;;;17.81;100.00
60373;BME280;46216;52.220;5.134;2023-09-19T10:16:56;100948.56;;;17.87;100.00
60373;BME280;46216;52.220;5.134;2023-09-19T10:19:43;100934.78;;;17.90;100.00
60373;BME280;46216;52.220;5.134;2023-09-19T10:22:12;100936.50;;;18.00;100.00
60373;BME280;46216;52.220;5.134;2023-09-19T10:24:46;100933.19;;;18.06;100.00
60373;BME280;46216;52.220;5.134;2023-09-19T10:27:12;100922.91;;;18.09;100.00
60373;BME280;46216;52.220;5.134;2023-09-19T10:29:45;100921.19;;;18.26;100.00
60373;BME280;46216;52.220;5.134;2023-09-19T10:32:15;100920.53;;;18.32;100.00
60373;BME280;46216;52.220;5.134;2023-09-19T10:34:46;100908.09;;;18.39;100.00
60373;BME280;46216;52.220;5.134;2023-09-19T10:37:12;100909.84;;;18.49;100.00
60373;BME280;46216;52.220;5.134;2023-09-19T10:39:40;100916.22;;;18.48;100.00
60373;BME280;46216;52.220;5.134;2023-09-19T10:42:07;100902.09;;;18.54;100.00
60373;BME280;46216;52.220;5.134;2023-09-19T10:44:38;100900.94;;;18.64;100.00
60373;BME280;46216;52.220;5.134;2023-09-19T10:47:09;100903.84;;;18.71;100.00
60373;BME280;46216;52.220;5.134;2023-09-19T10:49:34;100901.25;;;18.87;100.00
60373;BME280;46216;52.220;5.134;2023-09-19T10:52:00;100907.66;;;18.95;100.00
60373;BME280;46216;52.220;5.134;2023-09-19T10:54:31;100891.84;;;19.00;100.00
60373;BME280;46216;52.220;5.134;2023-09-19T10:56:59;100889.13;;;19.08;100.00
60373;BME280;46216;52.220;5.134;2023-09-19T10:59:25;100896.59;;;19.14;100.00
60373;BME280;46216;52.220;5.134;2023-09-19T11:02:00;100894.38;;;19.18;100.00
60373;BME280;46216;52.220;5.134;2023-09-19T11:04:40;100893.56;;;19.17;100.00
60373;BME280;46216;52.220;5.134;2023-09-19T11:07:12;100904.19;;;19.19;100.00
60373;BME280;46216;52.220;5.134;2023-09-19T11:09:54;100888.16;;;19.17;100.00
60373;BME280;46216;52.220;5.134;2023-09-19T11:14:54;100884.13;;;19.29;100.00
60373;BME280;46216;52.220;5.134;2023-09-19T11:30:44;100873.13;;;19.39;100.00
60373;BME280;46216;52.220;5.134;2023-09-19T11:36:10;100865.53;;;19.34;100.00
60373;BME280;46216;52.220;5.134;2023-09-19T11:43:49;100848.81;;;19.55;100.00
60373;BME280;46216;52.220;5.134;2023-09-19T11:46:16;100855.75;;;19.58;100.00
60373;BME280;46216;52.220;5.134;2023-09-19T11:48:47;100870.28;;;19.57;100.00
60373;BME280;46216;52.220;5.134;2023-09-19T11:51:16;100861.28;;;19.56;100.00
60373;BME280;46216;52.220;5.134;2023-09-19T11:53:48;100872.66;;;19.60;100.00
60373;BME280;46216;52.220;5.134;2023-09-19T11:56:38;100867.41;;;19.50;100.00
60373;BME280;46216;52.220;5.134;2023-09-19T11:59:06;100873.16;;;19.47;100.00
60373;BME280;46216;52.220;5.134;2023-09-19T12:01:33;100861.84;;;19.44;100.00
60373;BME280;46216;52.220;5.134;2023-09-19T12:04:01;100864.19;;;19.38;100.00
60373;BME280;46216;52.220;5.134;2023-09-19T12:06:30;100871.44;;;19.38;100.00
60373;BME280;46216;52.220;5.134;2023-09-19T12:08:57;100869.25;;;19.33;100.00
60373;BME280;46216;52.220;5.134;2023-09-19T12:11:28;100871.13;;;19.33;100.00
60373;BME280;46216;52.220;5.134;2023-09-19T12:13:55;100881.41;;;19.29;100.00
60373;BME280;46216;52.220;5.134;2023-09-19T12:16:24;100866.72;;;19.24;100.00
60373;BME280;46216;52.220;5.134;2023-09-19T12:18:50;100859.13;;;19.19;100.00
60373;BME280;46216;52.220;5.134;2023-09-19T12:26:23;100870.22;;;19.08;100.00
60373;BME280;46216;52.220;5.134;2023-09-19T12:28:49;100866.88;;;19.06;100.00
60373;BME280;46216;52.220;5.134;2023-09-19T12:31:18;100866.53;;;19.09;100.00
60373;BME280;46216;52.220;5.134;2023-09-19T12:33:44;100870.91;;;19.10;100.00
60373;BME280;46216;52.220;5.134;2023-09-19T12:36:23;100880.38;;;19.06;100.00
60373;BME280;46216;52.220;5.134;2023-09-19T12:38:55;100871.25;;;19.07;100.00
60373;BME280;46216;52.220;5.134;2023-09-19T12:41:21;100868.22;;;19.10;100.00
60373;BME280;46216;52.220;5.134;2023-09-19T12:43:52;100860.09;;;19.18;100.00
60373;BME280;46216;52.220;5.134;2023-09-19T12:46:20;100871.44;;;19.22;100.00
60373;BME280;46216;52.220;5.134;2023-09-19T12:49:16;100862.16;;;19.24;100.00
60373;BME280;46216;52.220;5.134;2023-09-19T12:51:48;100859.13;;;19.27;100.00
60373;BME280;46216;52.220;5.134;2023-09-19T12:54:14;100867.03;;;19.29;100.00
60373;BME280;46216;52.220;5.134;2023-09-19T12:56:43;100846.94;;;19.31;100.00
60373;BME280;46216;52.220;5.134;2023-09-19T12:59:13;100859.81;;;19.29;100.00
60373;BME280;46216;52.220;5.134;2023-09-19T13:01:41;100859.28;;;19.34;100.00
60373;BME280;46216;52.220;5.134;2023-09-19T13:04:20;100866.22;;;19.36;100.00
60373;BME280;46216;52.220;5.134;2023-09-19T13:06:51;100866.88;;;19.38;100.00
60373;BME280;46216;52.220;5.134;2023-09-19T13:09:18;100867.06;;;19.37;100.00
60373;BME280;46216;52.220;5.134;2023-09-19T13:11:45;100869.59;;;19.38;100.00
60373;BME280;46216;52.220;5.134;2023-09-19T13:14:26;100865.19;;;19.46;100.00
60373;BME280;46216;52.220;5.134;2023-09-19T13:17:06;100866.19;;;19.53;100.00
60373;BME280;46216;52.220;5.134;2023-09-19T13:19:43;100869.25;;;19.58;100.00
60373;BME280;46216;52.220;5.134;2023-09-19T13:22:42;100868.91;;;19.61;100.00
60373;BME280;46216;52.220;5.134;2023-09-19T13:25:15;100863.31;;;19.62;100.00
60373;BME280;46216;52.220;5.134;2023-09-19T13:27:53;100871.78;;;19.59;100.00
60373;BME280;46216;52.220;5.134;2023-09-19T13:30:24;100866.69;;;19.56;100.00
60373;BME280;46216;52.220;5.134;2023-09-19T13:32:51;100869.28;;;19.50;100.00
60373;BME280;46216;52.220;5.134;2023-09-19T13:35:18;100855.59;;;19.43;100.00